KLVK 242053Z 29010KT 10SM CLR 22/12 A2998 RMK AO2 SLP148 T02170122 58014